Time;durP1;ratioP1;P1;durP2;ratioP2;P2;SDS_P1;SDS_P2;PMS_P1;PMS_P2;Temp;Humidity;BMP_temperature;BMP_pressure;BME280_temperature;BME280_humidity;BME280_pressure;Samples;Min_cycle;Max_cycle;Signal;HPM_P1;HPM_P2
2024/02/06 00:01:23;;;;;;;0.82;0.82;;;;;;;9.54;100.00;100357.41;4868082;29;20402;-76
2024/02/06 00:03:50;;;;;;;0.30;0.30;;;;;;;9.62;100.00;100368.75;4875622;29;20032;-75
2024/02/06 00:06:15;;;;;;;0.30;0.30;;;;;;;9.57;100.00;100362.63;4874161;29;20152;-76
2024/02/06 00:08:41;;;;;;;2.05;1.75;;;;;;;8.95;100.00;100238.50;4874158;29;20048;-76
2024/02/06 00:11:07;;;;;;;0.57;0.57;;;;;;;8.98;100.00;100259.44;4871944;29;20056;-76
2024/02/06 00:13:33;;;;;;;1.58;1.33;;;;;;;9.03;100.00;100266.44;4869278;29;20041;-75
2024/02/06 00:16:00;;;;;;;0.28;0.28;;;;;;;9.48;100.00;100361.75;4871017;29;20047;-75
2024/02/06 00:18:26;;;;;;;1.25;1.15;;;;;;;9.44;100.00;100362.59;4870659;29;20053;-76
2024/02/06 00:20:51;;;;;;;0.63;0.63;;;;;;;8.95;100.00;100260.31;4854780;29;20567;-77
2024/02/06 00:23:17;;;;;;;0.47;0.47;;;;;;;9.59;100.00;100384.47;4866779;29;20068;-76
2024/02/06 00:25:43;;;;;;;0.40;0.40;;;;;;;9.02;100.00;100290.88;4871460;29;20040;-76
2024/02/06 00:28:08;;;;;;;1.60;1.50;;;;;;;9.48;100.00;100380.09;4872851;29;20048;-76
2024/02/06 00:30:33;;;;;;;0.20;0.20;;;;;;;8.85;100.00;100256.78;4874155;29;20056;-76
2024/02/06 00:32:59;;;;;;;0.30;0.30;;;;;;;9.51;100.00;100387.09;4869744;29;20782;-76
2024/02/06 00:35:24;;;;;;;0.20;0.20;;;;;;;9.60;100.00;100387.13;4870819;29;20065;-76
2024/02/06 00:37:50;;;;;;;1.80;1.27;;;;;;;9.33;100.00;100379.16;4870923;29;20074;-76
2024/02/06 00:40:15;;;;;;;1.33;1.23;;;;;;;9.43;100.00;100387.03;4871622;29;20081;-76
2024/02/06 00:42:41;;;;;;;0.30;0.30;;;;;;;8.78;100.00;100277.66;4868682;29;20037;-76
2024/02/06 00:45:07;;;;;;;0.20;0.20;;;;;;;9.48;100.00;100393.19;4870868;29;20051;-76
2024/02/06 00:47:33;;;;;;;0.20;0.20;;;;;;;8.68;100.00;100275.88;4868661;29;20053;-77
2024/02/06 00:49:58;;;;;;;0.20;0.20;;;;;;;9.49;100.00;100400.16;4869991;29;20498;-78
2024/02/06 00:52:24;;;;;;;0.20;0.20;;;;;;;9.14;100.00;100346.78;4870761;29;20449;-76
2024/02/06 00:54:50;;;;;;;1.15;1.05;;;;;;;9.00;100.00;100339.72;4869881;29;20033;-75
2024/02/06 00:57:16;;;;;;;0.85;0.85;;;;;;;9.41;100.00;100401.00;4870658;29;20393;-77
2024/02/06 00:59:42;;;;;;;0.30;0.30;;;;;;;8.75;100.00;100293.34;4868144;29;20465;-75
2024/02/06 01:02:07;;;;;;;1.88;1.65;;;;;;;9.16;100.00;100369.47;4867041;29;20145;-75
2024/02/06 01:04:33;;;;;;;0.20;0.20;;;;;;;8.08;100.00;100187.47;4869687;29;20135;-75
2024/02/06 01:06:58;;;;;;;0.40;0.40;;;;;;;9.11;100.00;100359.81;4853573;29;20048;-75
2024/02/06 01:09:25;;;;;;;0.20;0.20;;;;;;;9.24;100.00;100395.69;4872196;29;20072;-75
2024/02/06 01:11:51;;;;;;;0.30;0.30;;;;;;;9.15;100.00;100399.09;4865014;29;20482;-76
2024/02/06 01:14:16;;;;;;;0.52;0.52;;;;;;;9.04;100.00;100387.72;4869926;29;20044;-74
2024/02/06 01:16:42;;;;;;;1.17;0.95;;;;;;;8.52;100.00;100316.75;4871976;29;20524;-75
2024/02/06 01:19:07;;;;;;;0.20;0.20;;;;;;;8.66;100.00;100336.00;4851132;29;20036;-75
2024/02/06 01:21:32;;;;;;;0.60;0.57;;;;;;;8.84;100.00;100396.31;4867436;29;20044;-77
2024/02/06 01:23:58;;;;;;;2.35;2.25;;;;;;;8.78;100.00;100398.00;4865959;29;20057;-75
2024/02/06 01:26:23;;;;;;;0.95;0.90;;;;;;;8.74;100.00;100397.13;4869263;29;20068;-78
2024/02/06 01:28:49;;;;;;;0.25;0.25;;;;;;;8.21;100.00;100298.19;4849646;29;20053;-74
2024/02/06 01:31:15;;;;;;;0.30;0.30;;;;;;;8.86;100.00;100418.13;4868259;29;20037;-74
2024/02/06 01:33:40;;;;;;;1.08;0.98;;;;;;;8.86;100.00;100430.34;4866115;29;20045;-77
2024/02/06 01:36:08;;;;;;;0.30;0.30;;;;;;;9.01;100.00;100422.63;4865879;29;20080;-75
2024/02/06 01:38:33;;;;;;;0.38;0.38;;;;;;;8.43;100.00;100335.88;4866697;29;20394;-76
2024/02/06 01:40:59;;;;;;;0.45;0.45;;;;;;;8.27;100.00;100327.00;4866450;29;20144;-76
2024/02/06 01:43:24;;;;;;;2.15;1.75;;;;;;;8.93;100.00;100416.44;4866500;29;20072;-76
2024/02/06 01:45:53;;;;;;;0.77;0.77;;;;;;;8.14;100.00;100306.84;4869992;29;20486;-77
2024/02/06 01:48:20;;;;;;;0.30;0.30;;;;;;;8.78;100.00;100377.06;4872799;29;20057;-76
2024/02/06 01:50:46;;;;;;;1.27;1.10;;;;;;;8.80;100.00;100394.56;4872257;29;20052;-75
2024/02/06 01:53:12;;;;;;;0.20;0.20;;;;;;;8.66;100.00;100364.78;4870181;29;20394;-75
2024/02/06 01:55:38;;;;;;;0.20;0.20;;;;;;;8.41;100.00;100317.56;4873428;29;20049;-76
2024/02/06 01:58:04;;;;;;;0.32;0.32;;;;;;;8.61;100.00;100375.22;4871862;29;20079;-75
2024/02/06 02:00:30;;;;;;;0.55;0.55;;;;;;;8.64;100.00;100362.19;4851237;29;20053;-75
2024/02/06 02:02:56;;;;;;;0.50;0.50;;;;;;;8.14;100.00;100291.16;4870317;29;20151;-76
2024/02/06 02:05:22;;;;;;;2.35;2.15;;;;;;;8.61;100.00;100367.38;4870662;29;20132;-75
2024/02/06 02:07:48;;;;;;;0.77;0.68;;;;;;;8.24;100.00;100306.03;4869779;29;20572;-76
2024/02/06 02:10:14;;;;;;;0.20;0.20;;;;;;;8.20;100.00;100304.28;4865756;29;20049;-75
2024/02/06 02:12:40;;;;;;;0.98;0.88;;;;;;;8.11;100.00;100299.00;4871463;29;20053;-77
2024/02/06 02:15:06;;;;;;;0.20;0.20;;;;;;;8.50;100.00;100381.22;4872367;29;20061;-77
2024/02/06 02:17:32;;;;;;;0.52;0.52;;;;;;;8.50;100.00;100376.00;4868295;29;20049;-77
2024/02/06 02:19:57;;;;;;;2.00;1.58;;;;;;;7.92;100.00;100288.38;4870254;29;20077;-74
2024/02/06 02:22:23;;;;;;;0.20;0.20;;;;;;;8.57;100.00;100386.53;4872938;29;20037;-75
2024/02/06 02:24:52;;;;;;;2.20;1.75;;;;;;;7.87;100.00;100271.81;4873289;29;20449;-77
2024/02/06 02:27:18;;;;;;;0.30;0.30;;;;;;;8.33;100.00;100384.53;4871464;29;20053;-78
2024/02/06 02:29:45;;;;;;;0.30;0.30;;;;;;;8.26;100.00;100377.50;4871866;29;20053;-77
2024/02/06 02:32:12;;;;;;;0.25;0.25;;;;;;;8.32;100.00;100364.50;4871904;29;20121;-76
2024/02/06 02:34:38;;;;;;;0.20;0.20;;;;;;;7.73;100.00;100286.47;4872521;29;20053;-76
2024/02/06 02:37:03;;;;;;;2.85;1.15;;;;;;;7.59;100.00;100261.09;4870890;29;20140;-76
2024/02/06 02:39:30;;;;;;;1.27;1.20;;;;;;;8.38;100.00;100395.03;4872694;29;20045;-77
2024/02/06 02:41:55;;;;;;;0.40;0.30;;;;;;;8.40;100.00;100380.28;4871067;29;20081;-76
2024/02/06 02:44:21;;;;;;;0.45;0.45;;;;;;;7.89;100.00;100292.69;4874319;29;20084;-76
2024/02/06 02:46:47;;;;;;;0.30;0.30;;;;;;;8.52;100.00;100398.72;4878585;29;20061;-77
2024/02/06 02:49:12;;;;;;;0.30;0.30;;;;;;;8.57;100.00;100390.88;4883395;29;20045;-77
2024/02/06 02:51:38;;;;;;;0.30;0.30;;;;;;;8.41;100.00;100368.97;4878078;29;20398;-76
2024/02/06 02:54:04;;;;;;;2.85;2.45;;;;;;;7.88;100.00;100285.72;4873237;29;20061;-75
2024/02/06 02:56:31;;;;;;;0.73;0.73;;;;;;;7.70;100.00;100294.25;4869005;29;20052;-76
2024/02/06 02:58:56;;;;;;;0.30;0.30;;;;;;;8.31;100.00;100373.22;4869864;29;20095;-77
2024/02/06 03:01:22;;;;;;;0.30;0.30;;;;;;;8.52;100.00;100410.88;4872281;29;20065;-76
2024/02/06 03:03:47;;;;;;;0.20;0.20;;;;;;;8.13;100.00;100339.97;4874683;29;20494;-75
2024/02/06 03:06:20;;;;;;;0.30;0.30;;;;;;;8.57;100.00;100404.84;4873343;29;20089;-76
2024/02/06 03:08:45;;;;;;;7.68;7.28;;;;;;;8.37;100.00;100396.78;4867935;29;20056;-75
2024/02/06 03:11:12;;;;;;;1.88;1.67;;;;;;;8.51;100.00;100411.75;4869986;29;20045;-74
2024/02/06 03:13:42;;;;;;;0.50;0.50;;;;;;;8.07;100.00;100331.19;4854524;29;20063;-75
2024/02/06 03:16:08;;;;;;;3.15;2.92;;;;;;;8.52;100.00;100405.66;4871878;29;20041;-75
2024/02/06 03:18:35;;;;;;;0.30;0.30;;;;;;;7.87;100.00;100326.66;4873248;29;20067;-76
2024/02/06 03:21:00;;;;;;;0.20;0.20;;;;;;;8.02;100.00;100323.31;4872149;29;20045;-76
2024/02/06 03:23:27;;;;;;;0.30;0.30;;;;;;;8.06;100.00;100335.53;4871639;29;20049;-77
2024/02/06 03:25:53;;;;;;;1.33;1.33;;;;;;;8.51;100.00;100404.78;4872872;29;20049;-74
2024/02/06 03:28:18;;;;;;;0.25;0.25;;;;;;;8.58;100.00;100429.25;4873466;29;20113;-75
2024/02/06 03:30:45;;;;;;;0.30;0.30;;;;;;;8.52;100.00;100432.72;4873939;29;20028;-74
2024/02/06 03:33:10;;;;;;;0.30;0.30;;;;;;;8.31;100.00;100390.63;4873063;29;20085;-77
2024/02/06 03:35:38;;;;;;;0.82;0.77;;;;;;;8.41;100.00;100421.28;4873356;29;20144;-77
2024/02/06 03:38:03;;;;;;;1.20;1.20;;;;;;;7.93;100.00;100320.59;4871874;29;20164;-76
2024/02/06 03:40:29;;;;;;;0.77;0.77;;;;;;;8.55;100.00;100431.84;4871160;29;20044;-76
2024/02/06 03:42:54;;;;;;;0.30;0.30;;;;;;;8.49;100.00;100422.19;4873763;29;20071;-77
2024/02/06 03:45:21;;;;;;;0.20;0.20;;;;;;;8.25;100.00;100383.63;4854217;29;20049;-75
2024/02/06 03:47:47;;;;;;;0.35;0.35;;;;;;;8.39;100.00;100412.50;4869985;29;20051;-77
2024/02/06 03:50:12;;;;;;;0.63;0.63;;;;;;;8.50;100.00;100431.81;4868834;29;20422;-78
2024/02/06 03:52:38;;;;;;;1.40;1.38;;;;;;;8.26;100.00;100387.97;4872313;29;20453;-77
2024/02/06 03:55:03;;;;;;;6.35;6.13;;;;;;;8.04;100.00;100345.97;4873703;29;20056;-76
2024/02/06 03:57:29;;;;;;;1.63;1.55;;;;;;;8.11;100.00;100344.28;4871095;29;20053;-75
2024/02/06 03:59:54;;;;;;;0.40;0.40;;;;;;;8.42;100.00;100409.94;4874093;29;20158;-78
2024/02/06 04:02:21;;;;;;;0.20;0.20;;;;;;;8.57;100.00;100436.22;4876164;29;20093;-76
2024/02/06 04:04:50;;;;;;;0.20;0.20;;;;;;;8.40;100.00;100409.91;4859388;29;20144;-75
2024/02/06 04:07:15;;;;;;;0.45;0.40;;;;;;;8.56;100.00;100437.06;4860336;29;20040;-75
2024/02/06 04:09:41;;;;;;;0.32;0.32;;;;;;;7.98;100.00;100345.94;4869536;29;20117;-75
2024/02/06 04:12:07;;;;;;;0.40;0.40;;;;;;;8.18;100.00;100394.88;4870543;29;20080;-76
2024/02/06 04:14:33;;;;;;;0.20;0.20;;;;;;;7.81;100.00;100335.28;4870198;29;20116;-77
2024/02/06 04:16:59;;;;;;;0.20;0.20;;;;;;;7.90;100.00;100334.50;4853779;29;20048;-78
2024/02/06 04:19:25;;;;;;;0.68;0.68;;;;;;;7.87;100.00;100344.06;4870656;29;20048;-77
2024/02/06 04:21:51;;;;;;;0.40;0.40;;;;;;;8.42;100.00;100442.19;4870035;29;20033;-76
2024/02/06 04:24:17;;;;;;;0.22;0.22;;;;;;;7.78;100.00;100337.00;4869915;29;20056;-74
2024/02/06 04:26:45;;;;;;;1.33;0.95;;;;;;;8.45;100.00;100451.78;4870965;29;20406;-76
2024/02/06 04:29:12;;;;;;;2.97;1.73;;;;;;;7.96;100.00;100367.66;4867270;29;20053;-76
2024/02/06 04:31:38;;;;;;;0.30;0.30;;;;;;;8.34;100.00;100440.34;4867663;29;20513;-75
2024/02/06 04:34:04;;;;;;;0.30;0.30;;;;;;;8.37;100.00;100448.22;4872953;29;20156;-76
2024/02/06 04:36:30;;;;;;;0.60;0.60;;;;;;;8.20;100.00;100441.09;4871651;29;20513;-75
2024/02/06 04:38:57;;;;;;;0.40;0.40;;;;;;;8.15;100.00;100431.47;4871292;29;20068;-76
2024/02/06 04:41:22;;;;;;;0.20;0.20;;;;;;;8.33;100.00;100444.69;4867956;29;20045;-76
2024/02/06 04:43:47;;;;;;;0.20;0.20;;;;;;;8.32;100.00;100444.69;4866178;29;20068;-77
2024/02/06 04:46:13;;;;;;;0.30;0.30;;;;;;;7.60;100.00;100325.50;4871372;29;20028;-75
2024/02/06 04:48:39;;;;;;;0.20;0.20;;;;;;;7.69;100.00;100326.47;4870403;29;20414;-75
2024/02/06 04:51:04;;;;;;;0.30;0.30;;;;;;;8.16;100.00;100443.66;4871100;29;20043;-75
2024/02/06 04:53:31;;;;;;;0.52;0.52;;;;;;;8.31;100.00;100461.22;4871167;29;20048;-76
2024/02/06 04:55:57;;;;;;;0.30;0.30;;;;;;;8.32;100.00;100440.31;4869683;29;20053;-78
2024/02/06 04:58:22;;;;;;;0.30;0.30;;;;;;;7.67;100.00;100336.88;4869338;29;20056;-78
2024/02/06 05:00:48;;;;;;;0.30;0.30;;;;;;;8.23;100.00;100435.00;4870375;29;20123;-75
2024/02/06 05:03:14;;;;;;;0.20;0.20;;;;;;;8.03;100.00;100398.22;4868391;29;20642;-76
2024/02/06 05:05:40;;;;;;;5.78;1.85;;;;;;;8.24;100.00;100424.56;4869517;29;20045;-76
2024/02/06 05:08:06;;;;;;;0.30;0.30;;;;;;;8.23;100.00;100435.00;4870029;29;20059;-75
2024/02/06 05:10:32;;;;;;;1.63;1.52;;;;;;;8.10;100.00;100396.53;4860377;29;20092;-77
2024/02/06 05:12:58;;;;;;;0.28;0.28;;;;;;;7.71;100.00;100329.97;4871905;29;20029;-75
2024/02/06 05:15:23;;;;;;;0.40;0.40;;;;;;;8.36;100.00;100423.81;4868852;29;20041;-75
2024/02/06 05:17:49;;;;;;;0.63;0.55;;;;;;;7.88;100.00;100335.38;4877095;29;20084;-77
2024/02/06 05:20:15;;;;;;;0.65;0.60;;;;;;;8.53;100.00;100444.91;4879555;29;20049;-76
2024/02/06 05:22:43;;;;;;;0.20;0.20;;;;;;;8.51;100.00;100432.69;4877470;29;20061;-77
2024/02/06 05:25:09;;;;;;;0.52;0.52;;;;;;;7.82;100.00;100312.69;4870339;29;20048;-78
2024/02/06 05:27:34;;;;;;;0.30;0.30;;;;;;;7.94;100.00;100330.22;4868477;29;20054;-76
2024/02/06 05:30:04;;;;;;;0.50;0.40;;;;;;;8.52;100.00;100431.81;4855815;29;20098;-76
2024/02/06 05:32:36;;;;;;;0.40;0.40;;;;;;;8.16;100.00;100368.72;4873908;29;20493;-78
2024/02/06 05:35:03;;;;;;;0.30;0.30;;;;;;;7.89;100.00;100308.38;4869872;29;20057;-77
2024/02/06 05:37:28;;;;;;;2.10;2.00;;;;;;;8.50;100.00;100400.44;4875125;29;20041;-76
2024/02/06 05:39:54;;;;;;;0.80;0.50;;;;;;;8.72;100.00;100439.84;4874281;29;20029;-77
2024/02/06 05:42:20;;;;;;;0.25;0.25;;;;;;;8.79;100.00;100455.59;4873747;29;20060;-77
2024/02/06 05:44:46;;;;;;;3.08;2.40;;;;;;;8.82;100.00;100445.13;4873431;29;20044;-78
2024/02/06 05:47:11;;;;;;;0.20;0.20;;;;;;;7.93;100.00;100290.13;4873177;29;20116;-79
2024/02/06 05:49:37;;;;;;;0.30;0.30;;;;;;;8.37;100.00;100352.34;4869251;29;20049;-77
2024/02/06 05:52:03;;;;;;;0.30;0.30;;;;;;;8.45;100.00;100373.34;4874239;29;20123;-75
2024/02/06 05:54:28;;;;;;;0.73;0.50;;;;;;;8.51;100.00;100383.00;4870104;29;20271;-76
2024/02/06 05:56:54;;;;;;;0.20;0.20;;;;;;;8.75;100.00;100414.56;4867962;29;20467;-77
2024/02/06 05:59:21;;;;;;;0.20;0.20;;;;;;;8.49;100.00;100382.09;4856208;29;20045;-75
2024/02/06 06:01:47;;;;;;;0.20;0.20;;;;;;;8.49;100.00;100395.19;4855989;29;20045;-77
2024/02/06 06:04:12;;;;;;;0.60;0.60;;;;;;;8.30;100.00;100358.38;4855783;29;20056;-77
2024/02/06 06:06:38;;;;;;;0.85;0.68;;;;;;;9.01;100.00;100472.34;4856087;29;20533;-75
2024/02/06 06:09:03;;;;;;;0.47;0.47;;;;;;;8.93;100.00;100473.13;4855847;29;20049;-76
2024/02/06 06:11:29;;;;;;;0.20;0.20;;;;;;;8.88;100.00;100467.88;4854995;29;20733;-75
2024/02/06 06:13:54;;;;;;;0.20;0.20;;;;;;;9.00;100.00;100478.41;4854467;29;20052;-76
2024/02/06 06:16:20;;;;;;;0.20;0.20;;;;;;;8.49;100.00;100389.94;4856200;29;20120;-76
2024/02/06 06:18:45;;;;;;;1.85;0.95;;;;;;;8.90;100.00;100484.47;4856628;29;20486;-77
2024/02/06 06:21:11;;;;;;;9.98;9.52;;;;;;;8.88;100.00;100465.25;4855858;29;20173;-76
2024/02/06 06:23:36;;;;;;;0.57;0.30;;;;;;;9.00;100.00;100480.16;4850541;29;20057;-76
2024/02/06 06:26:05;;;;;;;0.28;0.28;;;;;;;8.29;100.00;100382.78;4854878;29;20442;-77
2024/02/06 06:28:31;;;;;;;18.27;17.08;;;;;;;8.75;100.00;100479.97;4855587;29;20121;-75
2024/02/06 06:30:57;;;;;;;0.65;0.65;;;;;;;8.85;100.00;100481.81;4855730;29;20116;-76
2024/02/06 06:33:22;;;;;;;4.53;2.45;;;;;;;8.77;100.00;100485.22;4855401;29;20041;-77
2024/02/06 06:35:49;;;;;;;0.20;0.20;;;;;;;8.84;100.00;100477.41;4855313;29;20081;-77
2024/02/06 06:38:14;;;;;;;0.28;0.28;;;;;;;8.80;100.00;100477.38;4849815;29;20114;-78
2024/02/06 06:40:40;;;;;;;0.43;0.43;;;;;;;8.08;100.00;100366.88;4855151;29;20049;-76
2024/02/06 06:43:06;;;;;;;0.30;0.30;;;;;;;8.41;100.00;100408.19;4854297;29;20137;-77
2024/02/06 06:45:32;;;;;;;0.63;0.57;;;;;;;8.11;100.00;100359.09;4855180;29;20514;-75
2024/02/06 06:47:58;;;;;;;0.52;0.50;;;;;;;8.71;100.00;100491.28;4855156;29;20458;-76
2024/02/06 06:50:23;;;;;;;1.35;1.23;;;;;;;8.18;100.00;100379.19;4855519;29;20053;-76
2024/02/06 06:52:49;;;;;;;0.30;0.30;;;;;;;8.83;100.00;100475.69;4854198;29;20049;-75
2024/02/06 06:55:14;;;;;;;1.20;1.10;;;;;;;8.93;100.00;100500.19;4853294;29;20073;-76
2024/02/06 06:57:42;;;;;;;0.65;0.65;;;;;;;8.32;100.00;100372.34;4869989;29;20060;-78
2024/02/06 07:00:11;;;;;;;0.32;0.32;;;;;;;8.49;100.00;100395.19;4872747;29;20076;-76
2024/02/06 07:02:37;;;;;;;1.00;0.90;;;;;;;8.33;100.00;100357.53;4866045;29;20580;-76
2024/02/06 07:05:02;;;;;;;0.30;0.30;;;;;;;8.77;100.00;100415.44;4872787;29;20071;-78
2024/02/06 07:07:28;;;;;;;0.73;0.73;;;;;;;8.70;100.00;100390.13;4868898;29;20474;-76
2024/02/06 07:09:53;;;;;;;0.32;0.32;;;;;;;9.39;100.00;100490.03;4871963;29;20061;-77
2024/02/06 07:12:19;;;;;;;0.20;0.20;;;;;;;8.81;100.00;100374.50;4873370;29;20049;-75
2024/02/06 07:14:44;;;;;;;0.20;0.20;;;;;;;9.03;100.00;100388.59;4871735;29;20053;-76
2024/02/06 07:17:11;;;;;;;0.43;0.43;;;;;;;9.14;100.00;100393.88;4873281;29;20079;-79
2024/02/06 07:19:36;;;;;;;0.20;0.20;;;;;;;9.71;100.00;100477.09;4873274;29;20057;-76
2024/02/06 07:22:02;;;;;;;0.28;0.28;;;;;;;9.16;100.00;100373.84;4874082;29;20401;-76
2024/02/06 07:24:28;;;;;;;0.45;0.45;;;;;;;9.49;100.00;100400.16;4870222;29;20497;-76
2024/02/06 07:26:54;;;;;;;0.20;0.20;;;;;;;9.57;100.00;100420.28;4872850;29;20682;-75
2024/02/06 07:29:20;;;;;;;0.50;0.45;;;;;;;10.09;100.00;100471.13;4873083;29;20517;-74
2024/02/06 07:31:45;;;;;;;0.20;0.20;;;;;;;9.67;100.00;100402.00;4873053;29;20041;-77
2024/02/06 07:34:11;;;;;;;1.98;1.85;;;;;;;10.26;100.00;100476.41;4873545;29;20066;-77
2024/02/06 07:36:37;;;;;;;0.30;0.30;;;;;;;9.51;100.00;100340.81;4874146;29;20049;-75
2024/02/06 07:39:03;;;;;;;0.32;0.32;;;;;;;10.39;100.00;100468.59;4873725;29;20080;-77
2024/02/06 07:41:28;;;;;;;0.20;0.20;;;;;;;10.51;100.00;100456.38;4871935;29;20041;-75
2024/02/06 07:43:54;;;;;;;1.52;1.15;;;;;;;10.60;100.00;100455.50;4855296;29;20071;-78
2024/02/06 07:46:19;;;;;;;0.20;0.20;;;;;;;10.23;100.00;100375.88;4863110;29;20553;-79
2024/02/06 07:48:45;;;;;;;0.47;0.47;;;;;;;10.21;100.00;100357.53;4862585;29;20453;-77
2024/02/06 07:51:14;;;;;;;0.30;0.30;;;;;;;10.40;100.00;100383.81;4871528;29;20060;-78
2024/02/06 07:53:41;;;;;;;1.00;0.85;;;;;;;10.77;100.00;100459.03;4870801;29;20104;-77
2024/02/06 07:56:09;;;;;;;0.40;0.40;;;;;;;10.22;100.00;100371.50;4872308;29;20057;-76
2024/02/06 07:58:35;;;;;;;3.13;2.72;;;;;;;10.57;100.00;100438.00;4869188;29;20029;-77
2024/02/06 08:01:00;;;;;;;1.63;1.38;;;;;;;10.32;100.00;100391.66;4866524;29;20413;-76
2024/02/06 08:03:26;;;;;;;1.48;1.33;;;;;;;10.26;100.00;100374.16;4870860;29;20053;-78
2024/02/06 08:05:51;;;;;;;0.20;0.20;;;;;;;10.95;100.00;100476.50;4872740;29;20565;-76
2024/02/06 08:08:18;;;;;;;0.68;0.65;;;;;;;10.69;100.00;100445.00;4871477;29;20064;-76
2024/02/06 08:10:45;;;;;;;2.05;1.73;;;;;;;10.42;100.00;100355.81;4871531;29;20084;-77
2024/02/06 08:13:12;;;;;;;0.20;0.20;;;;;;;11.18;100.00;100462.47;4873098;29;20148;-76
2024/02/06 08:15:39;;;;;;;2.60;2.50;;;;;;;11.38;100.00;100459.81;4870299;29;20049;-75
2024/02/06 08:18:04;;;;;;;0.82;0.80;;;;;;;11.49;100.00;100484.28;4866057;29;20051;-76
2024/02/06 08:20:30;;;;;;;5.13;1.67;;;;;;;10.94;100.00;100377.63;4871730;29;20049;-75
2024/02/06 08:22:56;;;;;;;0.68;0.57;;;;;;;11.30;100.00;100409.03;4866696;29;20056;-75
2024/02/06 08:25:25;;;;;;;1.65;1.15;;;;;;;11.59;100.00;100445.75;4871868;29;20048;-75
2024/02/06 08:27:51;;;;;;;0.30;0.30;;;;;;;11.88;100.00;100463.19;4865648;29;20040;-75
2024/02/06 08:30:18;;;;;;;1.98;1.77;;;;;;;11.82;100.00;100441.25;4854973;29;20033;-75
2024/02/06 08:32:44;;;;;;;0.47;0.47;;;;;;;12.02;100.00;100464.84;4854629;29;20101;-76
2024/02/06 08:35:10;;;;;;;2.15;1.23;;;;;;;12.06;100.00;100463.09;4846381;29;20433;-78
2024/02/06 08:37:35;;;;;;;10.23;1.73;;;;;;;12.19;100.00;100464.75;4869330;29;20105;-77
2024/02/06 08:40:05;;;;;;;2.25;1.85;;;;;;;11.76;100.00;100367.66;4872297;29;20778;-76
2024/02/06 08:42:31;;;;;;;0.35;0.35;;;;;;;12.40;100.00;100458.47;4871518;29;20758;-76
2024/02/06 08:44:57;;;;;;;2.38;2.17;;;;;;;11.99;100.00;100398.25;4871917;29;20052;-76
2024/02/06 08:47:23;;;;;;;2.95;2.63;;;;;;;12.14;100.00;100397.28;4869497;29;20132;-77
2024/02/06 08:49:50;;;;;;;1.77;1.55;;;;;;;12.78;100.00;100493.31;4872151;29;20084;-76
2024/02/06 08:52:15;;;;;;;1.48;1.38;;;;;;;12.74;100.00;100463.50;4868380;29;20047;-78
2024/02/06 08:54:41;;;;;;;4.75;2.13;;;;;;;13.00;100.00;100486.13;4872343;29;20025;-77
2024/02/06 08:57:06;;;;;;;22.38;1.92;;;;;;;12.63;100.00;100392.50;4871514;29;20076;-75
2024/02/06 08:59:32;;;;;;;0.28;0.28;;;;;;;13.32;100.00;100485.81;4869195;29;20053;-75
2024/02/06 09:02:01;;;;;;;0.50;0.47;;;;;;;13.10;100.00;100438.59;4871088;29;20082;-76
2024/02/06 09:04:26;;;;;;;0.52;0.43;;;;;;;13.40;100.00;100472.59;4869608;29;20563;-78
2024/02/06 09:06:52;;;;;;;0.75;0.52;;;;;;;13.17;100.00;100405.16;4871835;29;20144;-77
2024/02/06 09:09:18;;;;;;;2.83;1.85;;;;;;;13.51;99.29;100454.91;4870383;29;20049;-75
2024/02/06 09:11:44;;;;;;;1.85;1.20;;;;;;;13.05;97.75;100369.28;4872530;29;20045;-75
2024/02/06 09:14:10;;;;;;;2.00;1.75;;;;;;;13.42;96.04;100400.50;4871570;29;20508;-75
2024/02/06 09:16:35;;;;;;;0.90;0.80;;;;;;;13.70;94.69;100443.22;4870229;29;20060;-78
2024/02/06 09:19:01;;;;;;;2.05;1.45;;;;;;;13.95;93.07;100453.47;4871244;29;20489;-76
2024/02/06 09:21:26;;;;;;;4.25;1.73;;;;;;;13.99;91.69;100446.38;4870248;29;20113;-75
2024/02/06 09:23:52;;;;;;;3.90;1.25;;;;;;;14.14;88.15;100449.69;4867799;29;20111;-75
2024/02/06 09:26:18;;;;;;;1.52;1.42;;;;;;;13.74;85.89;100364.94;4871586;29;20053;-76
2024/02/06 09:28:44;;;;;;;1.55;1.45;;;;;;;14.52;83.60;100466.72;4871977;29;20084;-76
2024/02/06 09:31:11;;;;;;;0.30;0.30;;;;;;;14.20;80.87;100381.88;4871899;29;20076;-77
2024/02/06 09:33:37;;;;;;;1.23;0.95;;;;;;;14.75;78.51;100463.75;4872227;29;20053;-76
2024/02/06 09:36:04;;;;;;;2.88;2.17;;;;;;;14.80;77.47;100465.44;4870628;29;20057;-77
2024/02/06 09:38:30;;;;;;;0.82;0.60;;;;;;;14.22;76.64;100351.94;4869942;29;20068;-76
2024/02/06 09:40:57;;;;;;;1.70;1.60;;;;;;;14.81;73.54;100417.88;4853133;29;20057;-77
2024/02/06 09:43:23;;;;;;;2.88;2.45;;;;;;;14.55;70.85;100337.31;4849700;29;20505;-76
2024/02/06 09:45:50;;;;;;;1.33;1.23;;;;;;;15.17;70.78;100428.66;4871656;29;20033;-77
2024/02/06 09:48:16;;;;;;;1.58;1.45;;;;;;;15.34;70.38;100444.22;4871667;29;20061;-75
2024/02/06 09:50:45;;;;;;;0.82;0.82;;;;;;;15.42;71.12;100447.59;4868329;29;20109;-77
2024/02/06 09:53:11;;;;;;;0.47;0.47;;;;;;;14.97;70.43;100328.63;4863608;29;20058;-77
2024/02/06 09:55:47;;;;;;;2.22;1.60;;;;;;;15.03;69.73;100325.00;4868727;29;20064;-77
2024/02/06 09:58:14;;;;;;;3.80;3.25;;;;;;;15.12;65.85;100307.16;4864448;29;20084;-78
2024/02/06 10:00:43;;;;;;;0.22;0.22;;;;;;;15.37;64.09;100322.53;4871598;29;20069;-78
2024/02/06 10:03:15;;;;;;;0.98;0.93;;;;;;;15.77;62.65;100415.16;4871799;29;20053;-79
2024/02/06 10:05:42;;;;;;;1.75;0.98;;;;;;;16.04;61.58;100419.00;4871861;29;20052;-76
2024/02/06 10:08:14;;;;;;;3.05;2.05;;;;;;;15.59;59.79;100333.50;4873914;29;20053;-76
2024/02/06 10:10:45;;;;;;;3.67;1.98;;;;;;;15.94;60.31;100379.50;4868375;29;20429;-76
2024/02/06 10:13:11;;;;;;;2.10;1.40;;;;;;;16.24;60.46;100389.38;4876815;29;20119;-78
2024/02/06 10:15:37;;;;;;;1.15;1.05;;;;;;;16.19;57.98;100401.00;4879188;29;20177;-76
2024/02/06 10:18:03;;;;;;;0.32;0.32;;;;;;;16.34;58.33;100394.47;4877189;29;20041;-76
2024/02/06 10:20:29;;;;;;;0.60;0.60;;;;;;;15.86;58.07;100296.81;4863895;29;20453;-76
2024/02/06 10:22:55;;;;;;;1.00;0.90;;;;;;;16.41;57.22;100367.81;4866189;29;20048;-78
2024/02/06 10:25:21;;;;;;;3.58;1.15;;;;;;;16.61;56.88;100395.59;4873405;29;20029;-78
2024/02/06 10:27:46;;;;;;;0.90;0.85;;;;;;;16.82;54.51;100410.09;4874673;29;20048;-75
2024/02/06 10:30:12;;;;;;;4.53;4.20;;;;;;;16.79;53.77;100379.25;4868995;29;20115;-76
2024/02/06 10:32:38;;;;;;;3.70;2.53;;;;;;;16.97;52.83;100390.25;4876891;29;20124;-75
2024/02/06 10:35:08;;;;;;;1.17;0.95;;;;;;;16.76;53.26;100363.38;4874267;29;20053;-76
2024/02/06 10:37:38;;;;;;;0.65;0.43;;;;;;;17.11;52.22;100392.53;4873479;29;20779;-76
2024/02/06 10:40:11;;;;;;;1.00;0.80;;;;;;;16.79;51.89;100318.28;4874841;29;20040;-77
2024/02/06 10:42:39;;;;;;;1.85;1.73;;;;;;;17.20;49.76;100389.63;4873951;29;20064;-74
2024/02/06 10:45:05;;;;;;;1.45;1.35;;;;;;;17.23;50.77;100386.91;4873427;29;20048;-76
2024/02/06 10:47:31;;;;;;;4.88;2.33;;;;;;;17.53;50.51;100406.38;4872789;29;20259;-77
2024/02/06 10:50:04;;;;;;;0.73;0.60;;;;;;;17.59;50.60;100405.34;4871015;29;20056;-76
2024/02/06 10:52:30;;;;;;;0.70;0.60;;;;;;;17.67;50.41;100358.22;4850866;29;20049;-77
2024/02/06 10:54:56;;;;;;;6.82;3.28;;;;;;;17.97;50.76;100384.78;4874142;29;20048;-78
2024/02/06 10:57:25;;;;;;;1.58;1.48;;;;;;;17.68;50.56;100297.13;4873439;29;20067;-76
2024/02/06 11:00:11;;;;;;;0.98;0.70;;;;;;;18.04;49.27;100389.84;4873049;29;20120;-76
2024/02/06 11:02:43;;;;;;;1.73;0.90;;;;;;;17.71;48.51;100270.50;4872900;29;20151;-77
2024/02/06 11:05:29;;;;;;;1.40;1.30;;;;;;;18.45;48.41;100353.13;4873444;29;20045;-77
2024/02/06 11:07:58;;;;;;;1.15;1.05;;;;;;;18.16;47.30;100286.81;4869248;29;20509;-77
2024/02/06 11:10:34;;;;;;;11.27;3.50;;;;;;;18.00;47.35;100284.63;4873540;29;20041;-78
2024/02/06 11:13:07;;;;;;;2.30;2.10;;;;;;;17.93;47.83;100280.44;4873882;29;20176;-77
2024/02/06 11:15:41;;;;;;;1.95;1.85;;;;;;;18.29;47.17;100265.09;4871965;29;20505;-76
2024/02/06 11:18:13;;;;;;;1.55;1.13;;;;;;;18.41;46.02;100343.50;4870850;29;20048;-77
2024/02/06 11:20:41;;;;;;;0.82;0.68;;;;;;;18.73;45.55;100339.75;4868373;29;20413;-76